createdAt,value
2022-08-31T00:00:05.613Z,20.50
2022-08-31T00:05:10.781Z,20.60
2022-08-31T00:10:15.247Z,20.50
2022-08-31T00:15:22.043Z,20.50
2022-08-31T00:20:33.251Z,20.50
2022-08-31T00:25:39.767Z,20.40
2022-08-31T00:30:43.949Z,20.30
2022-08-31T00:35:46.944Z,20.20
2022-08-31T00:40:49.863Z,20.10
2022-08-31T00:45:52.842Z,20.10
2022-08-31T00:50:57.449Z,20.20
2022-08-31T00:56:00.894Z,20.20
2022-08-31T01:01:08.263Z,20.20
2022-08-31T01:06:11.753Z,20.10
2022-08-31T01:11:16.338Z,20.00
2022-08-31T01:16:53.554Z,19.90
2022-08-31T01:22:07.350Z,19.70
2022-08-31T01:27:12.019Z,19.60
2022-08-31T01:32:14.996Z,19.60
2022-08-31T01:37:17.975Z,19.50
2022-08-31T01:42:20.907Z,19.50
2022-08-31T01:47:23.693Z,19.70
2022-08-31T01:52:28.636Z,19.80
2022-08-31T01:57:33.975Z,19.90
2022-08-31T02:02:37.880Z,19.90
2022-08-31T02:07:41.957Z,19.90
2022-08-31T02:12:45.008Z,19.80
2022-08-31T02:17:49.335Z,19.70
2022-08-31T02:22:55.626Z,19.80
2022-08-31T02:27:58.896Z,19.80
2022-08-31T02:33:01.821Z,19.80
2022-08-31T02:38:06.879Z,19.80
2022-08-31T02:43:14.214Z,19.80
2022-08-31T02:48:27.433Z,19.80
2022-08-31T02:53:30.429Z,19.80
2022-08-31T02:58:38.436Z,19.80
2022-08-31T03:03:41.314Z,19.70
2022-08-31T03:08:50.680Z,19.70
2022-08-31T03:13:58.289Z,19.60
2022-08-31T03:19:01.809Z,19.50
2022-08-31T03:24:05.256Z,19.40
2022-08-31T03:29:08.055Z,19.40
2022-08-31T03:34:10.978Z,19.30
2022-08-31T03:39:18.786Z,19.20
2022-08-31T03:44:23.551Z,19.20
2022-08-31T03:49:27.108Z,19.10
2022-08-31T03:54:30.198Z,19.10
2022-08-31T03:59:33.602Z,19.00
2022-08-31T04:04:36.466Z,19.00
2022-08-31T04:09:39.397Z,18.90
2022-08-31T04:14:42.818Z,18.90
2022-08-31T04:19:45.674Z,18.90
2022-08-31T04:24:48.520Z,18.90
2022-08-31T04:29:51.240Z,18.80
2022-08-31T04:34:56.411Z,18.80
2022-08-31T04:40:01.433Z,18.80
2022-08-31T04:45:05.391Z,18.80
2022-08-31T04:50:13.922Z,18.80
2022-08-31T04:55:17.613Z,18.80
2022-08-31T05:00:22.129Z,18.70
2022-08-31T05:05:25.090Z,18.70
2022-08-31T05:10:27.873Z,18.80
2022-08-31T05:15:30.850Z,18.90
2022-08-31T05:20:33.844Z,19.00
2022-08-31T05:25:40.580Z,19.10
2022-08-31T05:30:47.625Z,19.20
2022-08-31T05:35:50.793Z,19.20
2022-08-31T05:40:56.154Z,19.30
2022-08-31T05:45:59.700Z,19.40
2022-08-31T05:51:09.622Z,19.60
2022-08-31T05:56:23.456Z,19.60
2022-08-31T06:01:30.567Z,19.80
2022-08-31T06:06:34.588Z,20.00
2022-08-31T06:11:42.314Z,20.20
2022-08-31T06:16:45.851Z,20.30
2022-08-31T06:21:50.271Z,20.50
2022-08-31T06:27:00.142Z,20.70
2022-08-31T06:32:08.094Z,20.80
2022-08-31T06:37:18.938Z,21.10
2022-08-31T06:42:21.963Z,21.30
2022-08-31T06:47:26.130Z,21.50
2022-08-31T06:52:28.983Z,21.80
2022-08-31T06:57:31.972Z,22.10
2022-08-31T07:02:39.214Z,22.30
2022-08-31T07:07:41.949Z,22.60
2022-08-31T07:12:44.828Z,22.80
2022-08-31T07:17:49.832Z,23.10
2022-08-31T07:22:52.677Z,23.20
2022-08-31T07:27:55.688Z,23.40
2022-08-31T07:32:58.518Z,23.60
2022-08-31T07:38:19.711Z,23.90
2022-08-31T07:43:22.539Z,24.10
2022-08-31T07:48:26.212Z,24.20
2022-08-31T07:53:28.965Z,24.70
2022-08-31T07:58:32.359Z,25.30
2022-08-31T08:03:35.301Z,25.60
2022-08-31T08:08:38.136Z,25.70
2022-08-31T08:13:40.975Z,25.70
2022-08-31T08:18:44.094Z,25.70
2022-08-31T08:23:46.911Z,25.70
2022-08-31T08:28:50.439Z,25.70
2022-08-31T08:33:53.220Z,25.70
2022-08-31T08:38:57.402Z,25.60
2022-08-31T08:44:05.115Z,25.70
2022-08-31T08:49:28.518Z,25.70
2022-08-31T08:54:45.403Z,25.70
2022-08-31T08:59:51.093Z,25.90
2022-08-31T09:05:26.402Z,26.10
2022-08-31T09:10:42.167Z,26.30
2022-08-31T09:15:52.829Z,26.60
2022-08-31T09:21:22.104Z,26.70
2022-08-31T09:26:29.867Z,26.80
2022-08-31T09:31:39.757Z,26.90
2022-08-31T09:36:42.752Z,27.00
2022-08-31T09:41:47.128Z,27.10
2022-08-31T09:46:56.804Z,27.30
2022-08-31T09:52:46.301Z,27.50
2022-08-31T09:57:59.183Z,27.70
2022-08-31T10:03:19.350Z,27.90
2022-08-31T10:08:38.619Z,28.10
2022-08-31T10:13:58.810Z,28.30
2022-08-31T10:19:32.867Z,28.30
2022-08-31T10:25:04.339Z,28.30
2022-08-31T10:30:38.886Z,28.30
2022-08-31T10:36:00.421Z,28.50
2022-08-31T10:41:28.969Z,28.50
2022-08-31T10:46:34.739Z,28.70
2022-08-31T10:52:00.044Z,28.80
2022-08-31T10:57:40.258Z,28.90
2022-08-31T11:03:05.010Z,29.00
2022-08-31T11:08:37.232Z,29.10
2022-08-31T11:14:04.291Z,29.10
2022-08-31T11:19:15.923Z,29.30
2022-08-31T11:24:56.150Z,29.70
2022-08-31T11:30:24.566Z,29.80
2022-08-31T11:36:06.441Z,29.90
2022-08-31T11:41:11.282Z,30.00
2022-08-31T11:46:26.496Z,30.10
2022-08-31T11:51:40.774Z,30.00
2022-08-31T11:56:47.480Z,29.50
2022-08-31T12:01:50.461Z,29.20
2022-08-31T12:06:54.924Z,29.40
2022-08-31T12:12:24.676Z,29.60
2022-08-31T12:17:38.384Z,29.80
2022-08-31T12:23:30.195Z,30.20
2022-08-31T12:28:49.324Z,30.40
2022-08-31T12:34:18.085Z,30.70
2022-08-31T12:39:28.215Z,30.80
2022-08-31T12:44:41.554Z,30.90
2022-08-31T12:50:08.217Z,31.00
2022-08-31T12:55:28.967Z,31.00
2022-08-31T13:00:39.395Z,30.90
2022-08-31T13:05:46.633Z,30.70
2022-08-31T13:10:50.557Z,30.60
2022-08-31T13:16:05.547Z,30.40
2022-08-31T13:21:09.539Z,30.20
2022-08-31T13:26:20.651Z,30.00
2022-08-31T13:31:35.634Z,30.00
2022-08-31T13:36:53.857Z,30.10
2022-08-31T13:42:05.379Z,30.10
2022-08-31T13:47:25.324Z,30.10
2022-08-31T13:52:30.984Z,30.00
2022-08-31T13:57:35.973Z,29.90
2022-08-31T14:02:39.579Z,29.80
2022-08-31T14:07:44.090Z,29.70
2022-08-31T14:12:50.563Z,29.60
2022-08-31T14:23:25.735Z,29.30
2022-08-31T14:28:40.878Z,29.30
2022-08-31T14:33:44.460Z,29.20
2022-08-31T14:38:48.400Z,29.20
2022-08-31T14:43:51.253Z,29.20
2022-08-31T14:48:59.265Z,29.30
2022-08-31T14:54:02.223Z,29.50
2022-08-31T14:59:12.679Z,29.70
2022-08-31T15:04:20.696Z,30.00
2022-08-31T15:09:24.556Z,30.10
2022-08-31T15:14:31.235Z,30.10
2022-08-31T15:19:35.277Z,30.10
2022-08-31T15:24:45.129Z,30.20
2022-08-31T15:29:51.897Z,30.10
2022-08-31T15:34:58.213Z,29.90
2022-08-31T15:40:04.517Z,29.70
2022-08-31T15:45:09.036Z,29.50
2022-08-31T15:50:12.109Z,29.30
2022-08-31T15:55:21.633Z,29.00
2022-08-31T16:00:29.068Z,28.80
2022-08-31T16:05:43.638Z,28.60
2022-08-31T16:10:48.157Z,28.40
2022-08-31T16:15:52.449Z,28.30
2022-08-31T16:20:56.253Z,28.10
2022-08-31T16:26:00.649Z,28.00
2022-08-31T16:31:03.713Z,27.80
2022-08-31T16:36:07.088Z,27.60
2022-08-31T16:41:11.156Z,27.50
2022-08-31T16:46:39.595Z,27.40
2022-08-31T16:51:39.245Z,27.30
2022-08-31T16:56:43.440Z,27.20
2022-08-31T17:01:58.093Z,27.10
2022-08-31T17:07:01.590Z,27.00
2022-08-31T17:12:08.357Z,26.90
2022-08-31T17:17:18.221Z,26.70
2022-08-31T17:22:31.601Z,26.60
2022-08-31T17:27:35.786Z,26.40
2022-08-31T17:32:45.099Z,26.20
2022-08-31T17:37:50.072Z,26.10
2022-08-31T17:42:57.924Z,26.00
2022-08-31T17:48:02.960Z,25.90
2022-08-31T17:53:06.635Z,25.70
2022-08-31T17:58:09.581Z,25.60
2022-08-31T18:03:12.686Z,25.50
2022-08-31T18:08:15.925Z,25.40
2022-08-31T18:13:24.274Z,25.30
2022-08-31T18:18:27.345Z,25.20
2022-08-31T18:23:30.813Z,25.10
2022-08-31T18:28:33.654Z,25.00
2022-08-31T18:33:37.882Z,24.90
2022-08-31T18:38:40.791Z,24.90
2022-08-31T18:44:01.929Z,24.80
2022-08-31T18:49:12.626Z,24.80
2022-08-31T18:54:16.612Z,24.70
2022-08-31T18:59:20.568Z,24.70
2022-08-31T19:04:23.456Z,24.60
2022-08-31T19:09:26.433Z,24.60
2022-08-31T19:14:34.374Z,24.60
2022-08-31T19:19:37.940Z,24.40
2022-08-31T19:24:41.043Z,24.30
2022-08-31T19:29:46.517Z,24.20
2022-08-31T19:34:49.694Z,24.10
2022-08-31T19:39:53.024Z,24.10
2022-08-31T19:45:22.719Z,24.00
2022-08-31T19:50:19.728Z,23.90
2022-08-31T19:55:22.636Z,23.70
2022-08-31T20:00:25.591Z,23.70
2022-08-31T20:05:28.580Z,23.60
2022-08-31T20:10:31.442Z,23.50
2022-08-31T20:15:42.040Z,23.50
2022-08-31T20:20:48.546Z,23.50
2022-08-31T20:25:53.304Z,23.40
2022-08-31T20:30:59.289Z,23.40
2022-08-31T20:36:22.711Z,23.30
2022-08-31T20:41:29.997Z,23.20
2022-08-31T20:46:51.204Z,23.10
2022-08-31T20:51:56.383Z,23.10
2022-08-31T20:57:02.189Z,23.00
2022-08-31T21:02:07.695Z,22.90
2022-08-31T21:07:12.594Z,22.80
2022-08-31T21:12:18.145Z,22.80
2022-08-31T21:17:22.654Z,22.70
2022-08-31T21:22:27.713Z,22.70
2022-08-31T21:27:31.186Z,22.60
2022-08-31T21:32:34.397Z,22.60
2022-08-31T21:37:37.819Z,22.60
2022-08-31T21:42:40.728Z,22.60
2022-08-31T21:47:43.542Z,22.60
2022-08-31T21:52:46.445Z,22.60
2022-08-31T21:57:49.463Z,22.60
2022-08-31T22:02:54.869Z,22.50
2022-08-31T22:07:57.934Z,22.50
2022-08-31T22:13:01.121Z,22.40
2022-08-31T22:18:46.135Z,22.40
2022-08-31T22:23:32.476Z,22.30
2022-08-31T22:28:35.363Z,22.30
2022-08-31T22:33:39.522Z,22.20
2022-08-31T22:38:51.436Z,22.10
2022-08-31T22:43:54.297Z,22.10
2022-08-31T22:48:57.969Z,22.00
2022-08-31T22:54:00.868Z,21.80
2022-08-31T22:59:27.733Z,21.70
2022-08-31T23:04:33.834Z,21.60
2022-08-31T23:09:36.688Z,21.40
2022-08-31T23:14:42.175Z,21.20
2022-08-31T23:19:46.733Z,21.00
2022-08-31T23:24:51.817Z,20.80
2022-08-31T23:29:58.128Z,20.60
2022-08-31T23:35:01.568Z,20.50
2022-08-31T23:40:06.282Z,20.30
2022-08-31T23:45:10.207Z,20.20
2022-08-31T23:50:14.803Z,20.00
2022-08-31T23:55:19.163Z,19.70
